This is the latest recevied weather packets stored in our database for station/object E24MSQ-13. If no packets are shown the sender has not sent any weather packets the latest 10 day(s).
| Time | Temp. | Humidity | Pressure | Rain* | Wind** | Luminosity | Snow |
|---|---|---|---|---|---|---|---|
| 1777376639 | 33.89° C | 63% | 1006 hPa | - | - | 0 W/m² | - |
| 1777375714 | 33.89° C | 64% | 1006 hPa | - | - | 0 W/m² | - |
| 1777374789 | 34.44° C | 61% | 1006 hPa | - | - | 0 W/m² | - |
| 1777373865 | 35.56° C | 56% | 1006 hPa | - | - | 0 W/m² | - |
| 1777372941 | 35° C | 56% | 1006 hPa | - | - | 0 W/m² | - |
| 1777372016 | 35.56° C | 54% | 1006 hPa | - | - | 0 W/m² | - |
| 1777371091 | 36.11° C | 50% | 1005 hPa | - | - | 0 W/m² | - |
| 1777370167 | 37.22° C | 46% | 1005 hPa | - | - | 0 W/m² | - |
| 1777369242 | 37.22° C | 46% | 1005 hPa | - | - | 0 W/m² | - |
| 1777368318 | 37.22° C | 46% | 1005 hPa | - | - | 0 W/m² | - |
| 1777367394 | 37.78° C | 46% | 1005 hPa | - | - | 0 W/m² | - |
| 1777366469 | 37.78° C | 45% | 1006 hPa | - | - | 0 W/m² | - |
| 1777365545 | 37.78° C | 45% | 1006 hPa | - | - | 0 W/m² | - |
| 1777364620 | 37.78° C | 45% | 1006 hPa | - | - | 0 W/m² | - |
| 1777363696 | 37.78° C | 46% | 1006 hPa | - | - | 0 W/m² | - |
| 1777362772 | 38.33° C | 42% | 1007 hPa | - | - | 0 W/m² | - |
| 1777361847 | 38.33° C | 43% | 1006 hPa | - | - | 0 W/m² | - |
| 1777360923 | 38.33° C | 44% | 1007 hPa | - | - | 0 W/m² | - |
| 1777359998 | 37.78° C | 43% | 1007 hPa | - | - | 0 W/m² | - |
| 1777359074 | 37.78° C | 44% | 1007 hPa | - | - | 0 W/m² | - |
| 1777358149 | 37.78° C | 48% | 1008 hPa | - | - | 0 W/m² | - |
| 1777357225 | 37.78° C | 49% | 1008 hPa | - | - | 0 W/m² | - |
| 1777356300 | 37.78° C | 48% | 1008 hPa | - | - | 0 W/m² | - |
| 1777355376 | 37.22° C | 49% | 1008 hPa | - | - | 0 W/m² | - |
| 1777354452 | 36.67° C | 49% | 1009 hPa | - | - | 0 W/m² | - |
* Rain since midnight (hover to see other rain measurements)
** Current wind speed in m/s (hover to see current wind gust speed)